Historique des mesures à Cassis (13260), France
Quotidien Résumé Juin 11, 2021 Unités:  Métrique    US   Métrique/US
Quotidien Hebdomadaire Mensuel Annuel
  Maximum: Minimum: Moyenne:
Température: 33.2 °C 21.9 °C 27.6 °C
Point de rosée: 19.5 °C 12 °C 15.1 °C
Humidité: 56% 38% 47%
Vitesse du vent: 14.4km/h 0km/h 4.5km/h
Rafales: 16.2km/h - -
Vent- - SSW
Pression: 1014.8 hPa 1012.3 hPa -
Précipitations: 0.0 mm    
Historical Graphs
 
 
Mesures pour : Juin 11, 2021
Heure Temperature Point de rosée Pression Vent Vitesse du vent Rafales Humidité Pluie (par heure)
00:11 24.5 °C 12.8 °C 1013.4 hPa West 2.5 km/h 5 km/h 48% 0.0 mm
01:11 23.8 °C 12.8 °C 1013.2 hPa NW 4 km/h 6.1 km/h 50% 0.0 mm
02:11 23.6 °C 12.3 °C 1012.9 hPa NW 6.5 km/h 7.2 km/h 49% 0.0 mm
03:11 23.8 °C 12.5 °C 1012.6 hPa Calm   5.4 km/h 49% 0.0 mm
04:11 23.3 °C 12.3 °C 1012.9 hPa WNW 3.6 km/h 10.4 km/h 50% 0.0 mm
05:11 23 °C 12 °C 1013.0 hPa Calm   2.9 km/h 50% 0.0 mm
06:11 21.9 °C 12.7 °C 1013.6 hPa NNW 7.9 km/h 7.9 km/h 56% 0.0 mm
07:11 22.6 °C 12.5 °C 1014.0 hPa NNW 1.8 km/h 2.2 km/h 53% 0.0 mm
08:11 27.3 °C 13.9 °C 1013.5 hPa WNW 2.9 km/h 9 km/h 44% 0.0 mm
09:11 27.2 °C 13.2 °C 1013.3 hPa WNW 14.4 km/h 16.2 km/h 42% 0.0 mm
10:11 28.1 °C 15 °C 1012.9 hPa ESE 3.2 km/h 6.8 km/h 45% 0.0 mm
11:11 30.4 °C 15.7 °C 1013.3 hPa SSE 3.6 km/h 10.8 km/h 41% 0.0 mm
12:11 31.3 °C 17.2 °C 1014.7 hPa SE 4 km/h 10.8 km/h 43% 0.0 mm
13:11 30.6 °C 18 °C 1014.8 hPa SE 4.7 km/h 8.3 km/h 47% 0.0 mm
14:11 31.6 °C 18.2 °C 1013.7 hPa SE 10.1 km/h 10.1 km/h 45% 0.0 mm
15:11 32.1 °C 17.9 °C 1013.0 hPa SE 2.5 km/h 7.6 km/h 43% 0.0 mm
16:11 32.9 °C 17.1 °C 1012.4 hPa SE 10.4 km/h 10.4 km/h 39% 0.0 mm
17:11 33.2 °C 16.9 °C 1012.3 hPa ESE 3.2 km/h 8.6 km/h 38% 0.0 mm
18:11 30.6 °C 19 °C 1012.5 hPa SE 2.2 km/h 6.1 km/h 50% 0.0 mm
19:11 29.8 °C 19.5 °C 1012.4 hPa SE 2.2 km/h 3.2 km/h 54% 0.0 mm
Observations météo à CASSIS
WU-History script by Weather Underground - 2 mb